Airfield :
LOGIN :

Register | Disclaimer

   EN    FR    IT 

 










Legend :    VFR   Marginal VFR   IFR   Intensive IFR   Very Intensive IFR
Visi :
Ceiling :
>= 8 km
>= 3000ft
5 to 8 km
1000 to 3000 ft
1500m to 5 km
500 to 1000 ft
800 to 1500m
200 to 500 ft
< 800m
< 200 ft
Symbols :   Thunderstorms  Fog  Heavy snow  Heavy precipitations  Wind > 20 kt
SIGMETs :     Misc.  Thunderstorms  Icing  Turbulence  Mountain Waves  Volcanic Ashes






- Airport Elevation : 33 ft
- IATA code : MHZ


EGUN - RAF Mildenhall

CURRENT METAR :
  • 270156Z 19003KT 9000 BR CLR 16/16 A2975 RMK AO2A SLP077 T01630163 $

EXPIRED METARs :
  • 270056Z 18003KT 9999 FEW090 17/17 A2977 RMK AO2A SLP084 T01700170 $
  • 262356Z 17004KT 9999 BKN085 17/17 A2978 RMK AO2A SLP087 T01720172 10232 20170 402500123 58004 $

TAF TAF EGUN
Valid from the 26 at 20:00 until the 28 at 02:00 UTC


262000Z 2620/2802 18005KT 9999 SCT050 BKN200 QNH2976INS
BECMG 2623/2624 20005KT 9000 BR FEW015 BKN040 BKN200 QNH2978INS
BECMG 2702/2703 24009KT 8000 BR VCSH SCT007 BKN015 OVC060 QNH2980INS
TEMPO 2705/2709 24010G15KT -SHRA VCTS FEW009 SCT018 BKN045CB OVC080
BECMG 2709/2710 22009KT 9999 NSW FEW030 BKN050 OVC080 QNH2974INS
BECMG 2712/2713 19009KT 9999 VCSH FEW015 SCT030 BKN050 OVC070 QNH2968INS
TEMPO 2715/2719 18010G15KT 6000 -TSRA BR BKN025 OVC050CB
BECMG 2720/2721 20005KT 9000 BR FEW007 BKN015 OVC030 QNH2965INS
BECMG 2800/2801 22005KT 5000 BR BKN007 OVC015 QNH2968INS TX25/2714Z TN15/2703Z



MET'MAP, your aeronautical weather chart ! - Copyright ORBIFLY December 2007 - Disclaimer

ORBIFLY MET'MAP TEAM :

Programming & Development : Alexandra Zaïnal
Concept & original design : Baudouin d'Aumeries
Assistance for programming : Marc-Olivier Méhu
Technical & hardware support : Manuel Goepfert

Contact : metmap@orbifly.com




SOURCES & CREDITS :

   NOAA